sensor_id;sensor_type;location;lat;lon;timestamp;pressure;altitude;pressure_sealevel;temperature;humidity
22862;BME280;11598;50.652;6.172;2023-05-23T00:04:56;96693.19;;;13.16;100.00
22862;BME280;11598;50.652;6.172;2023-05-23T00:14:57;96684.19;;;13.09;100.00
22862;BME280;11598;50.652;6.172;2023-05-23T00:24:58;96696.91;;;13.02;100.00
22862;BME280;11598;50.652;6.172;2023-05-23T00:35:01;96701.66;;;12.97;100.00
22862;BME280;11598;50.652;6.172;2023-05-23T00:45:01;96704.06;;;12.89;100.00
22862;BME280;11598;50.652;6.172;2023-05-23T00:55:02;96698.16;;;12.87;100.00
22862;BME280;11598;50.652;6.172;2023-05-23T01:05:03;96704.44;;;12.84;100.00
22862;BME280;11598;50.652;6.172;2023-05-23T01:35:42;96705.06;;;12.65;100.00
22862;BME280;11598;50.652;6.172;2023-05-23T01:45:43;96701.75;;;12.52;100.00
22862;BME280;11598;50.652;6.172;2023-05-23T01:55:43;96699.88;;;12.43;100.00
22862;BME280;11598;50.652;6.172;2023-05-23T02:05:44;96715.84;;;12.27;100.00
22862;BME280;11598;50.652;6.172;2023-05-23T02:15:44;96725.94;;;12.09;100.00
22862;BME280;11598;50.652;6.172;2023-05-23T02:25:45;96746.91;;;11.83;100.00
22862;BME280;11598;50.652;6.172;2023-05-23T02:35:46;96745.41;;;11.57;100.00
22862;BME280;11598;50.652;6.172;2023-05-23T02:45:49;96744.91;;;11.52;100.00
22862;BME280;11598;50.652;6.172;2023-05-23T02:55:49;96740.91;;;11.48;100.00
22862;BME280;11598;50.652;6.172;2023-05-23T03:05:50;96743.13;;;11.41;100.00
22862;BME280;11598;50.652;6.172;2023-05-23T03:15:50;96747.31;;;11.31;100.00
22862;BME280;11598;50.652;6.172;2023-05-23T03:25:51;96762.75;;;11.21;100.00
22862;BME280;11598;50.652;6.172;2023-05-23T03:35:51;96771.44;;;11.09;100.00
22862;BME280;11598;50.652;6.172;2023-05-23T03:45:52;96769.72;;;10.96;100.00
22862;BME280;11598;50.652;6.172;2023-05-23T03:55:52;96776.50;;;10.86;100.00
22862;BME280;11598;50.652;6.172;2023-05-23T04:05:53;96782.00;;;10.82;100.00
22862;BME280;11598;50.652;6.172;2023-05-23T04:15:53;96795.69;;;10.72;100.00
22862;BME280;11598;50.652;6.172;2023-05-23T04:25:56;96807.00;;;10.71;100.00
22862;BME280;11598;50.652;6.172;2023-05-23T04:35:56;96799.00;;;10.62;100.00
22862;BME280;11598;50.652;6.172;2023-05-23T04:45:57;96806.47;;;10.53;100.00
22862;BME280;11598;50.652;6.172;2023-05-23T04:55:57;96809.00;;;10.42;100.00
22862;BME280;11598;50.652;6.172;2023-05-23T05:05:58;96819.78;;;10.36;100.00
22862;BME280;11598;50.652;6.172;2023-05-23T05:15:58;96817.31;;;10.47;100.00
22862;BME280;11598;50.652;6.172;2023-05-23T05:25:59;96820.09;;;10.57;100.00
22862;BME280;11598;50.652;6.172;2023-05-23T05:36:00;96817.91;;;10.64;100.00
22862;BME280;11598;50.652;6.172;2023-05-23T05:46:00;96825.09;;;10.73;100.00
22862;BME280;11598;50.652;6.172;2023-05-23T05:56:01;96833.47;;;10.76;100.00
22862;BME280;11598;50.652;6.172;2023-05-23T06:06:01;96839.22;;;10.69;100.00
22862;BME280;11598;50.652;6.172;2023-05-23T06:16:01;96847.00;;;10.69;100.00
22862;BME280;11598;50.652;6.172;2023-05-23T06:26:02;96851.56;;;10.65;100.00
22862;BME280;11598;50.652;6.172;2023-05-23T06:36:04;96855.75;;;10.68;100.00
22862;BME280;11598;50.652;6.172;2023-05-23T06:46:05;96867.28;;;10.64;100.00
22862;BME280;11598;50.652;6.172;2023-05-23T06:56:05;96868.75;;;10.55;100.00
22862;BME280;11598;50.652;6.172;2023-05-23T07:06:06;96876.94;;;10.62;100.00
22862;BME280;11598;50.652;6.172;2023-05-23T07:16:07;96873.94;;;10.55;100.00
22862;BME280;11598;50.652;6.172;2023-05-23T07:26:07;96879.94;;;10.55;100.00
22862;BME280;11598;50.652;6.172;2023-05-23T07:36:09;96885.88;;;10.57;100.00
22862;BME280;11598;50.652;6.172;2023-05-23T07:46:10;96891.38;;;10.53;100.00
22862;BME280;11598;50.652;6.172;2023-05-23T07:56:10;96899.63;;;10.47;100.00
22862;BME280;11598;50.652;6.172;2023-05-23T08:06:11;96905.94;;;10.43;100.00
22862;BME280;11598;50.652;6.172;2023-05-23T08:16:11;96906.34;;;10.36;100.00
22862;BME280;11598;50.652;6.172;2023-05-23T08:26:12;96917.53;;;10.37;100.00
22862;BME280;11598;50.652;6.172;2023-05-23T08:36:12;96925.88;;;10.42;100.00
22862;BME280;11598;50.652;6.172;2023-05-23T08:46:14;96917.88;;;10.58;100.00
22862;BME280;11598;50.652;6.172;2023-05-23T08:56:15;96927.97;;;10.63;100.00
22862;BME280;11598;50.652;6.172;2023-05-23T09:06:20;96938.06;;;10.54;100.00
22862;BME280;11598;50.652;6.172;2023-05-23T09:16:20;96948.09;;;10.46;100.00
22862;BME280;11598;50.652;6.172;2023-05-23T09:26:21;96951.34;;;10.63;100.00
22862;BME280;11598;50.652;6.172;2023-05-23T09:36:21;96951.78;;;11.20;100.00
22862;BME280;11598;50.652;6.172;2023-05-23T09:46:27;96960.34;;;10.84;100.00
22862;BME280;11598;50.652;6.172;2023-05-23T09:56:28;96970.91;;;10.68;100.00
22862;BME280;11598;50.652;6.172;2023-05-23T10:06:36;96960.13;;;10.87;100.00
22862;BME280;11598;50.652;6.172;2023-05-23T10:26:47;96966.88;;;10.90;100.00
22862;BME280;11598;50.652;6.172;2023-05-23T10:37:03;96971.97;;;11.04;100.00
22862;BME280;11598;50.652;6.172;2023-05-23T10:47:03;96986.72;;;11.16;100.00
22862;BME280;11598;50.652;6.172;2023-05-23T10:57:04;96989.13;;;11.82;100.00
22862;BME280;11598;50.652;6.172;2023-05-23T11:07:05;96992.34;;;11.85;100.00
22862;BME280;11598;50.652;6.172;2023-05-23T11:27:11;96997.94;;;12.05;100.00
22862;BME280;11598;50.652;6.172;2023-05-23T11:37:12;97005.53;;;12.32;100.00
22862;BME280;11598;50.652;6.172;2023-05-23T11:47:12;96997.66;;;12.80;96.04
22862;BME280;11598;50.652;6.172;2023-05-23T11:57:12;97008.59;;;12.26;96.03
22862;BME280;11598;50.652;6.172;2023-05-23T12:07:13;96996.59;;;12.47;95.34
22862;BME280;11598;50.652;6.172;2023-05-23T12:17:13;97008.22;;;12.90;92.88
22862;BME280;11598;50.652;6.172;2023-05-23T12:27:15;97009.38;;;12.75;92.17
22862;BME280;11598;50.652;6.172;2023-05-23T12:37:16;97015.47;;;12.51;90.72
22862;BME280;11598;50.652;6.172;2023-05-23T12:47:16;97015.16;;;12.43;91.05
22862;BME280;11598;50.652;6.172;2023-05-23T12:57:17;97019.28;;;12.69;88.85
22862;BME280;11598;50.652;6.172;2023-05-23T13:07:17;97010.03;;;13.01;87.69
22862;BME280;11598;50.652;6.172;2023-05-23T13:17:17;97020.53;;;13.35;85.63
22862;BME280;11598;50.652;6.172;2023-05-23T13:27:18;97008.25;;;13.24;80.80
22862;BME280;11598;50.652;6.172;2023-05-23T13:37:18;97016.03;;;13.48;80.18
22862;BME280;11598;50.652;6.172;2023-05-23T13:47:19;97025.28;;;13.63;79.87
22862;BME280;11598;50.652;6.172;2023-05-23T13:57:19;97023.41;;;13.07;79.85
22862;BME280;11598;50.652;6.172;2023-05-23T14:07:19;97016.19;;;13.00;75.65
22862;BME280;11598;50.652;6.172;2023-05-23T14:17:21;97004.34;;;13.07;74.27
22862;BME280;11598;50.652;6.172;2023-05-23T14:27:21;97013.81;;;12.97;70.12
22862;BME280;11598;50.652;6.172;2023-05-23T14:37:21;97025.84;;;12.75;70.84
22862;BME280;11598;50.652;6.172;2023-05-23T14:47:22;97012.56;;;12.78;70.97
22862;BME280;11598;50.652;6.172;2023-05-23T14:57:22;96999.41;;;13.38;69.83
22862;BME280;11598;50.652;6.172;2023-05-23T15:07:23;97001.38;;;13.11;69.59
22862;BME280;11598;50.652;6.172;2023-05-23T15:17:23;96990.47;;;13.06;71.01
22862;BME280;11598;50.652;6.172;2023-05-23T15:27:23;96986.34;;;13.26;69.35
22862;BME280;11598;50.652;6.172;2023-05-23T15:37:24;96974.94;;;13.16;68.51
22862;BME280;11598;50.652;6.172;2023-05-23T15:47:24;96978.09;;;12.86;69.76
22862;BME280;11598;50.652;6.172;2023-05-23T15:57:25;96982.00;;;12.80;70.38
22862;BME280;11598;50.652;6.172;2023-05-23T16:07:25;96988.44;;;12.52;70.84
22862;BME280;11598;50.652;6.172;2023-05-23T16:17:25;96989.13;;;12.43;71.42
22862;BME280;11598;50.652;6.172;2023-05-23T16:27:26;96986.78;;;12.86;70.75
22862;BME280;11598;50.652;6.172;2023-05-23T16:37:26;96974.63;;;13.32;68.48
22862;BME280;11598;50.652;6.172;2023-05-23T16:47:26;96979.56;;;13.01;68.23
22862;BME280;11598;50.652;6.172;2023-05-23T16:57:27;96975.50;;;12.86;69.05
22862;BME280;11598;50.652;6.172;2023-05-23T17:07:27;96975.06;;;13.03;67.97
22862;BME280;11598;50.652;6.172;2023-05-23T17:17:27;96975.63;;;13.07;67.09
22862;BME280;11598;50.652;6.172;2023-05-23T17:27:28;96983.16;;;12.76;66.72
22862;BME280;11598;50.652;6.172;2023-05-23T17:37:28;96989.97;;;12.55;66.39
22862;BME280;11598;50.652;6.172;2023-05-23T17:47:28;96985.63;;;12.31;67.37
22862;BME280;11598;50.652;6.172;2023-05-23T17:57:30;96995.34;;;12.05;68.60
22862;BME280;11598;50.652;6.172;2023-05-23T18:07:30;97007.13;;;11.85;69.69
22862;BME280;11598;50.652;6.172;2023-05-23T18:17:31;97013.53;;;11.68;69.52
22862;BME280;11598;50.652;6.172;2023-05-23T18:27:31;97022.31;;;11.41;68.33
22862;BME280;11598;50.652;6.172;2023-05-23T18:37:31;97027.50;;;11.16;68.70
22862;BME280;11598;50.652;6.172;2023-05-23T18:47:33;97027.09;;;10.96;70.10
22862;BME280;11598;50.652;6.172;2023-05-23T18:57:34;97028.31;;;10.78;71.73
22862;BME280;11598;50.652;6.172;2023-05-23T19:07:34;97038.56;;;10.67;72.71
22862;BME280;11598;50.652;6.172;2023-05-23T19:17:35;97048.41;;;10.49;73.14
22862;BME280;11598;50.652;6.172;2023-05-23T19:27:35;97061.72;;;10.30;73.26
22862;BME280;11598;50.652;6.172;2023-05-23T19:37:35;97068.91;;;10.12;73.46
22862;BME280;11598;50.652;6.172;2023-05-23T19:47:36;97077.63;;;9.97;74.07
22862;BME280;11598;50.652;6.172;2023-05-23T19:57:36;97088.22;;;9.79;74.67
22862;BME280;11598;50.652;6.172;2023-05-23T20:07:37;97089.88;;;9.51;75.27
22862;BME280;11598;50.652;6.172;2023-05-23T20:17:38;97100.78;;;9.28;76.45
22862;BME280;11598;50.652;6.172;2023-05-23T20:27:39;97114.66;;;9.13;77.64
22862;BME280;11598;50.652;6.172;2023-05-23T20:37:39;97114.81;;;9.09;78.56
22862;BME280;11598;50.652;6.172;2023-05-23T20:47:40;97141.69;;;9.08;79.61
22862;BME280;11598;50.652;6.172;2023-05-23T20:57:41;97139.69;;;8.98;79.25
22862;BME280;11598;50.652;6.172;2023-05-23T21:07:42;97139.91;;;8.79;79.56
22862;BME280;11598;50.652;6.172;2023-05-23T21:17:42;97143.69;;;8.57;79.99
22862;BME280;11598;50.652;6.172;2023-05-23T21:27:43;97148.63;;;8.30;80.62
22862;BME280;11598;50.652;6.172;2023-05-23T21:37:43;97152.69;;;8.02;81.26
22862;BME280;11598;50.652;6.172;2023-05-23T21:47:43;97148.13;;;7.74;82.80
22862;BME280;11598;50.652;6.172;2023-05-23T21:57:44;97151.28;;;7.46;83.26
22862;BME280;11598;50.652;6.172;2023-05-23T22:07:44;97158.38;;;7.25;84.31
22862;BME280;11598;50.652;6.172;2023-05-23T22:17:44;97148.25;;;7.03;84.68
22862;BME280;11598;50.652;6.172;2023-05-23T22:27:45;97149.16;;;6.85;85.37
22862;BME280;11598;50.652;6.172;2023-05-23T22:37:46;97144.31;;;6.60;86.34
22862;BME280;11598;50.652;6.172;2023-05-23T22:47:46;97136.81;;;6.36;87.40
22862;BME280;11598;50.652;6.172;2023-05-23T22:57:47;97130.22;;;6.11;88.30
22862;BME280;11598;50.652;6.172;2023-05-23T23:07:47;97135.09;;;5.99;88.74
22862;BME280;11598;50.652;6.172;2023-05-23T23:17:48;97119.50;;;5.81;89.20
22862;BME280;11598;50.652;6.172;2023-05-23T23:27:48;97115.75;;;5.69;89.11
22862;BME280;11598;50.652;6.172;2023-05-23T23:37:48;97122.38;;;5.55;89.53
22862;BME280;11598;50.652;6.172;2023-05-23T23:47:49;97126.47;;;5.40;89.86
22862;BME280;11598;50.652;6.172;2023-05-23T23:57:49;97129.50;;;5.29;90.32
